sensor_id;sensor_type;location;lat;lon;timestamp;pressure;altitude;pressure_sealevel;temperature;humidity
53719;BME280;39616;48.872;9.390;2024-03-06T00:00:57;98392.13;;;5.35;100.00
53719;BME280;39616;48.872;9.390;2024-03-06T00:03:27;98390.78;;;5.37;100.00
53719;BME280;39616;48.872;9.390;2024-03-06T00:05:57;98386.50;;;5.41;100.00
53719;BME280;39616;48.872;9.390;2024-03-06T00:08:27;98387.88;;;5.44;100.00
53719;BME280;39616;48.872;9.390;2024-03-06T00:10:58;98388.38;;;5.41;100.00
53719;BME280;39616;48.872;9.390;2024-03-06T00:13:28;98387.06;;;5.38;100.00
53719;BME280;39616;48.872;9.390;2024-03-06T00:15:58;98389.97;;;5.37;100.00
53719;BME280;39616;48.872;9.390;2024-03-06T00:18:29;98389.69;;;5.33;100.00
53719;BME280;39616;48.872;9.390;2024-03-06T00:20:59;98391.34;;;5.34;100.00
53719;BME280;39616;48.872;9.390;2024-03-06T00:23:29;98395.34;;;5.37;100.00
53719;BME280;39616;48.872;9.390;2024-03-06T00:26:01;98395.06;;;5.28;100.00
53719;BME280;39616;48.872;9.390;2024-03-06T00:28:32;98399.63;;;5.27;100.00
53719;BME280;39616;48.872;9.390;2024-03-06T00:31:05;98399.88;;;5.26;100.00
53719;BME280;39616;48.872;9.390;2024-03-06T00:33:35;98407.69;;;5.27;100.00
53719;BME280;39616;48.872;9.390;2024-03-06T00:36:06;98409.56;;;5.27;100.00
53719;BME280;39616;48.872;9.390;2024-03-06T00:38:36;98409.56;;;5.27;100.00
53719;BME280;39616;48.872;9.390;2024-03-06T00:41:07;98404.72;;;5.29;100.00
53719;BME280;39616;48.872;9.390;2024-03-06T00:43:37;98402.03;;;5.29;100.00
53719;BME280;39616;48.872;9.390;2024-03-06T00:46:07;98402.59;;;5.31;100.00
53719;BME280;39616;48.872;9.390;2024-03-06T00:48:38;98396.66;;;5.29;100.00
53719;BME280;39616;48.872;9.390;2024-03-06T00:51:11;98401.50;;;5.27;100.00
53719;BME280;39616;48.872;9.390;2024-03-06T00:53:42;98404.22;;;5.32;100.00
53719;BME280;39616;48.872;9.390;2024-03-06T00:56:12;98398.53;;;5.28;100.00
53719;BME280;39616;48.872;9.390;2024-03-06T00:58:42;98394.25;;;5.27;100.00
53719;BME280;39616;48.872;9.390;2024-03-06T01:01:16;98397.19;;;5.26;100.00
53719;BME280;39616;48.872;9.390;2024-03-06T01:03:46;98403.09;;;5.23;100.00
53719;BME280;39616;48.872;9.390;2024-03-06T01:06:17;98402.25;;;5.22;100.00
53719;BME280;39616;48.872;9.390;2024-03-06T01:08:47;98410.31;;;5.17;100.00
53719;BME280;39616;48.872;9.390;2024-03-06T01:11:18;98411.63;;;5.15;100.00
53719;BME280;39616;48.872;9.390;2024-03-06T01:13:48;98405.72;;;5.13;100.00
53719;BME280;39616;48.872;9.390;2024-03-06T01:16:19;98409.50;;;5.17;100.00
53719;BME280;39616;48.872;9.390;2024-03-06T01:18:49;98398.47;;;5.13;100.00
53719;BME280;39616;48.872;9.390;2024-03-06T01:21:19;98405.72;;;5.13;100.00
53719;BME280;39616;48.872;9.390;2024-03-06T01:23:50;98404.34;;;5.10;100.00
53719;BME280;39616;48.872;9.390;2024-03-06T01:26:20;98415.06;;;5.05;100.00
53719;BME280;39616;48.872;9.390;2024-03-06T01:28:51;98411.00;;;5.02;100.00
53719;BME280;39616;48.872;9.390;2024-03-06T01:31:21;98416.38;;;5.02;100.00
53719;BME280;39616;48.872;9.390;2024-03-06T01:33:51;98406.19;;;5.04;100.00
53719;BME280;39616;48.872;9.390;2024-03-06T01:36:22;98410.72;;;4.99;100.00
53719;BME280;39616;48.872;9.390;2024-03-06T01:38:52;98412.59;;;4.98;100.00
53719;BME280;39616;48.872;9.390;2024-03-06T01:41:22;98409.41;;;5.01;100.00
53719;BME280;39616;48.872;9.390;2024-03-06T01:43:53;98406.19;;;5.04;100.00
53719;BME280;39616;48.872;9.390;2024-03-06T01:46:23;98406.22;;;5.09;100.00
53719;BME280;39616;48.872;9.390;2024-03-06T01:48:53;98415.38;;;5.08;100.00
53719;BME280;39616;48.872;9.390;2024-03-06T01:51:24;98402.16;;;5.07;100.00
53719;BME280;39616;48.872;9.390;2024-03-06T01:53:54;98405.94;;;5.06;100.00
53719;BME280;39616;48.872;9.390;2024-03-06T01:56:25;98401.88;;;5.03;100.00
53719;BME280;39616;48.872;9.390;2024-03-06T01:58:57;98409.91;;;4.98;100.00
53719;BME280;39616;48.872;9.390;2024-03-06T02:01:28;98427.06;;;4.92;100.00
53719;BME280;39616;48.872;9.390;2024-03-06T02:03:59;98418.38;;;4.80;100.00
53719;BME280;39616;48.872;9.390;2024-03-06T02:06:29;98421.88;;;4.80;100.00
53719;BME280;39616;48.872;9.390;2024-03-06T02:09:00;98411.88;;;4.76;100.00
53719;BME280;39616;48.872;9.390;2024-03-06T02:11:30;98414.31;;;4.77;100.00
53719;BME280;39616;48.872;9.390;2024-03-06T02:14:01;98420.47;;;4.73;100.00
53719;BME280;39616;48.872;9.390;2024-03-06T02:16:31;98412.63;;;4.71;100.00
53719;BME280;39616;48.872;9.390;2024-03-06T02:19:01;98406.22;;;4.72;100.00
53719;BME280;39616;48.872;9.390;2024-03-06T02:21:32;98408.94;;;4.77;100.00
53719;BME280;39616;48.872;9.390;2024-03-06T02:24:02;98411.38;;;4.79;100.00
53719;BME280;39616;48.872;9.390;2024-03-06T02:26:32;98416.53;;;4.85;100.00
53719;BME280;39616;48.872;9.390;2024-03-06T02:29:03;98414.91;;;4.84;100.00
53719;BME280;39616;48.872;9.390;2024-03-06T02:31:35;98415.69;;;4.80;100.00
53719;BME280;39616;48.872;9.390;2024-03-06T02:34:06;98414.38;;;4.82;100.00
53719;BME280;39616;48.872;9.390;2024-03-06T02:36:36;98418.06;;;4.76;100.00
53719;BME280;39616;48.872;9.390;2024-03-06T02:39:06;98411.88;;;4.76;100.00
53719;BME280;39616;48.872;9.390;2024-03-06T02:41:38;98404.88;;;4.75;100.00
53719;BME280;39616;48.872;9.390;2024-03-06T02:44:09;98404.63;;;4.76;100.00
53719;BME280;39616;48.872;9.390;2024-03-06T02:46:39;98405.16;;;4.73;100.00
53719;BME280;39616;48.872;9.390;2024-03-06T02:49:09;98400.06;;;4.77;100.00
53719;BME280;39616;48.872;9.390;2024-03-06T02:51:40;98394.69;;;4.77;100.00
53719;BME280;39616;48.872;9.390;2024-03-06T02:54:10;98408.41;;;4.75;100.00
53719;BME280;39616;48.872;9.390;2024-03-06T02:56:40;98400.06;;;4.77;100.00
53719;BME280;39616;48.872;9.390;2024-03-06T02:59:11;98406.25;;;4.77;100.00
53719;BME280;39616;48.872;9.390;2024-03-06T03:01:41;98400.06;;;4.77;100.00
53719;BME280;39616;48.872;9.390;2024-03-06T03:04:11;98400.06;;;4.77;100.00
53719;BME280;39616;48.872;9.390;2024-03-06T03:06:42;98402.75;;;4.77;100.00
53719;BME280;39616;48.872;9.390;2024-03-06T03:09:12;98404.88;;;4.75;100.00
53719;BME280;39616;48.872;9.390;2024-03-06T03:11:43;98403.03;;;4.75;100.00
53719;BME280;39616;48.872;9.390;2024-03-06T03:14:14;98406.75;;;4.74;100.00
53719;BME280;39616;48.872;9.390;2024-03-06T03:16:44;98407.56;;;4.75;100.00
53719;BME280;39616;48.872;9.390;2024-03-06T03:19:15;98407.06;;;4.78;100.00
53719;BME280;39616;48.872;9.390;2024-03-06T03:21:46;98407.63;;;4.80;100.00
53719;BME280;39616;48.872;9.390;2024-03-06T03:24:17;98414.88;;;4.79;100.00
53719;BME280;39616;48.872;9.390;2024-03-06T03:26:50;98407.63;;;4.80;100.00
53719;BME280;39616;48.872;9.390;2024-03-06T03:29:21;98412.63;;;4.71;100.00
53719;BME280;39616;48.872;9.390;2024-03-06T03:31:51;98409.44;;;4.74;100.00
53719;BME280;39616;48.872;9.390;2024-03-06T03:34:22;98409.44;;;4.74;100.00
53719;BME280;39616;48.872;9.390;2024-03-06T03:36:53;98413.00;;;4.80;100.00
53719;BME280;39616;48.872;9.390;2024-03-06T03:39:23;98411.38;;;4.79;100.00
53719;BME280;39616;48.872;9.390;2024-03-06T03:41:56;98418.66;;;4.83;100.00
53719;BME280;39616;48.872;9.390;2024-03-06T03:44:27;98427.50;;;4.79;100.00
53719;BME280;39616;48.872;9.390;2024-03-06T03:46:57;98430.94;;;4.74;100.00
53719;BME280;39616;48.872;9.390;2024-03-06T03:49:29;98429.59;;;4.72;100.00
53719;BME280;39616;48.872;9.390;2024-03-06T03:52:00;98431.16;;;4.68;100.00
53719;BME280;39616;48.872;9.390;2024-03-06T03:54:30;98436.00;;;4.71;100.00
53719;BME280;39616;48.872;9.390;2024-03-06T03:57:01;98428.00;;;4.76;100.00
53719;BME280;39616;48.872;9.390;2024-03-06T03:59:31;98434.22;;;4.81;100.00
53719;BME280;39616;48.872;9.390;2024-03-06T04:02:01;98429.13;;;4.80;100.00
53719;BME280;39616;48.872;9.390;2024-03-06T04:04:32;98435.28;;;4.80;100.00
53719;BME280;39616;48.872;9.390;2024-03-06T04:07:03;98433.41;;;4.81;100.00
53719;BME280;39616;48.872;9.390;2024-03-06T04:09:35;98433.97;;;4.83;100.00
53719;BME280;39616;48.872;9.390;2024-03-06T04:12:06;98435.09;;;4.87;100.00
53719;BME280;39616;48.872;9.390;2024-03-06T04:14:36;98438.31;;;4.89;100.00
53719;BME280;39616;48.872;9.390;2024-03-06T04:17:07;98441.06;;;4.94;100.00
53719;BME280;39616;48.872;9.390;2024-03-06T04:19:37;98438.88;;;4.91;100.00
53719;BME280;39616;48.872;9.390;2024-03-06T04:22:07;98449.06;;;4.89;100.00
53719;BME280;39616;48.872;9.390;2024-03-06T04:24:41;98442.38;;;4.92;100.00
53719;BME280;39616;48.872;9.390;2024-03-06T04:27:11;98449.63;;;4.91;100.00
53719;BME280;39616;48.872;9.390;2024-03-06T04:29:42;98456.88;;;4.91;100.00
53719;BME280;39616;48.872;9.390;2024-03-06T04:32:12;98460.34;;;4.86;100.00
53719;BME280;39616;48.872;9.390;2024-03-06T04:34:42;98463.56;;;4.88;100.00
53719;BME280;39616;48.872;9.390;2024-03-06T04:37:12;98461.44;;;4.90;100.00
53719;BME280;39616;48.872;9.390;2024-03-06T04:39:43;98461.69;;;4.89;100.00
53719;BME280;39616;48.872;9.390;2024-03-06T04:42:13;98461.16;;;4.87;100.00
53719;BME280;39616;48.872;9.390;2024-03-06T04:44:45;98471.91;;;4.87;100.00
53719;BME280;39616;48.872;9.390;2024-03-06T04:47:15;98469.44;;;4.85;100.00
53719;BME280;39616;48.872;9.390;2024-03-06T04:49:46;98475.69;;;4.91;100.00
53719;BME280;39616;48.872;9.390;2024-03-06T04:52:19;98479.41;;;4.84;100.00
53719;BME280;39616;48.872;9.390;2024-03-06T04:54:49;98475.09;;;4.83;100.00
53719;BME280;39616;48.872;9.390;2024-03-06T04:57:20;98481.75;;;4.76;100.00
53719;BME280;39616;48.872;9.390;2024-03-06T04:59:50;98480.66;;;4.77;100.00
53719;BME280;39616;48.872;9.390;2024-03-06T05:02:20;98492.28;;;4.82;100.00
53719;BME280;39616;48.872;9.390;2024-03-06T05:04:51;98487.97;;;4.81;100.00
53719;BME280;39616;48.872;9.390;2024-03-06T05:07:21;98491.41;;;4.77;100.00
53719;BME280;39616;48.872;9.390;2024-03-06T05:09:51;98490.31;;;4.73;100.00
53719;BME280;39616;48.872;9.390;2024-03-06T05:12:22;98496.19;;;4.70;100.00
53719;BME280;39616;48.872;9.390;2024-03-06T05:14:53;98492.50;;;4.76;100.00
53719;BME280;39616;48.872;9.390;2024-03-06T05:17:23;98504.88;;;4.82;100.00
53719;BME280;39616;48.872;9.390;2024-03-06T05:19:53;98504.66;;;4.83;100.00
53719;BME280;39616;48.872;9.390;2024-03-06T05:22:24;98509.75;;;4.85;100.00
53719;BME280;39616;48.872;9.390;2024-03-06T05:24:56;98511.91;;;4.83;100.00
53719;BME280;39616;48.872;9.390;2024-03-06T05:27:28;98510.53;;;4.80;100.00
53719;BME280;39616;48.872;9.390;2024-03-06T05:29:58;98508.59;;;4.76;100.00
53719;BME280;39616;48.872;9.390;2024-03-06T05:32:29;98510.50;;;4.75;100.00
53719;BME280;39616;48.872;9.390;2024-03-06T05:35:00;98514.47;;;4.73;100.00
53719;BME280;39616;48.872;9.390;2024-03-06T05:37:30;98521.16;;;4.70;100.00
53719;BME280;39616;48.872;9.390;2024-03-06T05:40:00;98513.91;;;4.71;100.00
53719;BME280;39616;48.872;9.390;2024-03-06T05:42:31;98513.97;;;4.76;100.00
53719;BME280;39616;48.872;9.390;2024-03-06T05:45:01;98522.03;;;4.76;100.00
53719;BME280;39616;48.872;9.390;2024-03-06T05:47:35;98529.53;;;4.74;100.00
53719;BME280;39616;48.872;9.390;2024-03-06T05:50:05;98527.34;;;4.71;100.00
53719;BME280;39616;48.872;9.390;2024-03-06T05:52:36;98525.78;;;4.75;100.00
53719;BME280;39616;48.872;9.390;2024-03-06T05:55:07;98532.47;;;4.72;100.00
53719;BME280;39616;48.872;9.390;2024-03-06T05:57:37;98532.53;;;4.77;100.00
53719;BME280;39616;48.872;9.390;2024-03-06T06:00:08;98536.69;;;4.90;100.00
53719;BME280;39616;48.872;9.390;2024-03-06T06:02:41;98539.06;;;4.87;100.00
53719;BME280;39616;48.872;9.390;2024-03-06T06:05:12;98550.25;;;4.78;100.00
53719;BME280;39616;48.872;9.390;2024-03-06T06:07:42;98546.03;;;4.82;100.00
53719;BME280;39616;48.872;9.390;2024-03-06T06:10:13;98546.53;;;4.79;100.00
53719;BME280;39616;48.872;9.390;2024-03-06T06:12:43;98559.50;;;4.88;100.00
53719;BME280;39616;48.872;9.390;2024-03-06T06:15:14;98557.97;;;4.70;100.00
53719;BME280;39616;48.872;9.390;2024-03-06T06:17:45;98560.66;;;4.70;100.00
53719;BME280;39616;48.872;9.390;2024-03-06T06:20:16;98567.41;;;4.72;100.00
53719;BME280;39616;48.872;9.390;2024-03-06T06:22:48;98568.97;;;4.68;100.00
53719;BME280;39616;48.872;9.390;2024-03-06T06:25:18;98579.50;;;4.75;100.00
53719;BME280;39616;48.872;9.390;2024-03-06T06:27:48;98580.28;;;4.70;100.00
53719;BME280;39616;48.872;9.390;2024-03-06T06:30:19;98581.38;;;4.74;100.00
53719;BME280;39616;48.872;9.390;2024-03-06T06:32:49;98584.16;;;4.79;100.00
53719;BME280;39616;48.872;9.390;2024-03-06T06:35:20;98582.72;;;4.72;100.00
53719;BME280;39616;48.872;9.390;2024-03-06T06:37:50;98591.59;;;4.72;100.00
53719;BME280;39616;48.872;9.390;2024-03-06T06:40:21;98590.78;;;4.72;100.00
53719;BME280;39616;48.872;9.390;2024-03-06T06:42:51;98595.69;;;4.80;100.00
53719;BME280;39616;48.872;9.390;2024-03-06T06:45:22;98590.13;;;4.87;100.00
53719;BME280;39616;48.872;9.390;2024-03-06T06:47:52;98596.31;;;4.87;100.00
53719;BME280;39616;48.872;9.390;2024-03-06T06:50:23;98595.75;;;4.85;100.00
53719;BME280;39616;48.872;9.390;2024-03-06T06:52:56;98593.56;;;4.82;100.00
53719;BME280;39616;48.872;9.390;2024-03-06T06:55:26;98592.44;;;4.78;100.00
53719;BME280;39616;48.872;9.390;2024-03-06T06:57:56;98589.41;;;4.69;100.00
53719;BME280;39616;48.872;9.390;2024-03-06T07:00:27;98590.50;;;4.73;100.00
53719;BME280;39616;48.872;9.390;2024-03-06T07:02:58;98593.19;;;4.73;100.00
53719;BME280;39616;48.872;9.390;2024-03-06T07:05:28;98599.34;;;4.69;100.00
53719;BME280;39616;48.872;9.390;2024-03-06T07:07:59;98596.50;;;4.80;100.00
53719;BME280;39616;48.872;9.390;2024-03-06T07:10:29;98599.16;;;4.75;100.00
53719;BME280;39616;48.872;9.390;2024-03-06T07:12:59;98601.84;;;4.75;100.00
53719;BME280;39616;48.872;9.390;2024-03-06T07:15:30;98601.38;;;4.83;100.00
53719;BME280;39616;48.872;9.390;2024-03-06T07:18:00;98590.88;;;4.82;100.00
53719;BME280;39616;48.872;9.390;2024-03-06T07:20:30;98598.38;;;4.80;100.00
53719;BME280;39616;48.872;9.390;2024-03-06T07:23:01;98600.06;;;4.86;100.00
53719;BME280;39616;48.872;9.390;2024-03-06T07:25:32;98603.59;;;4.92;100.00
53719;BME280;39616;48.872;9.390;2024-03-06T07:28:02;98600.63;;;4.88;100.00
53719;BME280;39616;48.872;9.390;2024-03-06T07:30:32;98595.19;;;4.83;100.00
53719;BME280;39616;48.872;9.390;2024-03-06T07:33:03;98609.94;;;4.80;100.00
53719;BME280;39616;48.872;9.390;2024-03-06T07:35:33;98608.19;;;4.91;100.00
53719;BME280;39616;48.872;9.390;2024-03-06T07:38:06;98606.66;;;5.00;100.00
53719;BME280;39616;48.872;9.390;2024-03-06T07:40:36;98611.59;;;5.08;100.00
53719;BME280;39616;48.872;9.390;2024-03-06T07:43:06;98608.97;;;5.19;100.00
53719;BME280;39616;48.872;9.390;2024-03-06T07:45:37;98618.19;;;5.23;100.00
53719;BME280;39616;48.872;9.390;2024-03-06T07:48:07;98624.31;;;5.18;100.00
53719;BME280;39616;48.872;9.390;2024-03-06T07:50:39;98623.31;;;5.24;100.00
53719;BME280;39616;48.872;9.390;2024-03-06T07:53:10;98630.88;;;5.27;100.00
53719;BME280;39616;48.872;9.390;2024-03-06T07:55:40;98627.03;;;4.96;100.00
53719;BME280;39616;48.872;9.390;2024-03-06T07:58:10;98627.41;;;5.05;100.00
53719;BME280;39616;48.872;9.390;2024-03-06T08:00:41;98636.66;;;4.92;100.00
53719;BME280;39616;48.872;9.390;2024-03-06T08:03:11;98632.88;;;4.88;100.00
53719;BME280;39616;48.872;9.390;2024-03-06T08:05:43;98635.38;;;4.95;100.00
53719;BME280;39616;48.872;9.390;2024-03-06T08:08:14;98635.22;;;5.06;100.00
53719;BME280;39616;48.872;9.390;2024-03-06T08:10:44;98634.91;;;5.03;100.00
53719;BME280;39616;48.872;9.390;2024-03-06T08:13:17;98639.47;;;5.02;100.00
53719;BME280;39616;48.872;9.390;2024-03-06T08:15:49;98642.44;;;5.01;100.00
53719;BME280;39616;48.872;9.390;2024-03-06T08:18:19;98641.91;;;5.04;100.00
53719;BME280;39616;48.872;9.390;2024-03-06T08:20:50;98638.41;;;5.03;100.00
53719;BME280;39616;48.872;9.390;2024-03-06T08:23:20;98645.53;;;4.93;100.00
53719;BME280;39616;48.872;9.390;2024-03-06T08:25:51;98645.63;;;4.98;100.00
53719;BME280;39616;48.872;9.390;2024-03-06T08:28:22;98639.97;;;4.99;100.00
53719;BME280;39616;48.872;9.390;2024-03-06T08:30:52;98647.19;;;4.94;100.00
53719;BME280;39616;48.872;9.390;2024-03-06T08:33:24;98646.59;;;4.92;100.00
53719;BME280;39616;48.872;9.390;2024-03-06T08:35:55;98643.63;;;4.88;100.00
53719;BME280;39616;48.872;9.390;2024-03-06T08:38:25;98654.22;;;5.00;100.00
53719;BME280;39616;48.872;9.390;2024-03-06T08:40:55;98650.88;;;5.15;100.00
53719;BME280;39616;48.872;9.390;2024-03-06T08:43:26;98644.19;;;5.17;100.00
53719;BME280;39616;48.872;9.390;2024-03-06T08:45:56;98651.31;;;5.28;100.00
53719;BME280;39616;48.872;9.390;2024-03-06T08:48:26;98646.44;;;5.25;100.00
53719;BME280;39616;48.872;9.390;2024-03-06T08:50:57;98640.50;;;5.23;100.00
53719;BME280;39616;48.872;9.390;2024-03-06T08:53:27;98653.16;;;5.23;100.00
53719;BME280;39616;48.872;9.390;2024-03-06T08:55:57;98652.25;;;5.17;100.00
53719;BME280;39616;48.872;9.390;2024-03-06T08:58:27;98656.56;;;5.18;100.00
53719;BME280;39616;48.872;9.390;2024-03-06T09:00:58;98659.88;;;5.25;100.00
53719;BME280;39616;48.872;9.390;2024-03-06T09:03:29;98657.44;;;5.24;100.00
53719;BME280;39616;48.872;9.390;2024-03-06T09:05:59;98675.22;;;5.30;100.00
53719;BME280;39616;48.872;9.390;2024-03-06T09:08:30;98671.31;;;5.38;100.00
53719;BME280;39616;48.872;9.390;2024-03-06T09:11:00;98674.81;;;5.38;100.00
53719;BME280;39616;48.872;9.390;2024-03-06T09:13:30;98673.13;;;5.32;100.00
53719;BME280;39616;48.872;9.390;2024-03-06T09:16:01;98669.00;;;5.24;100.00
53719;BME280;39616;48.872;9.390;2024-03-06T09:18:31;98679.25;;;5.27;100.00
53719;BME280;39616;48.872;9.390;2024-03-06T09:21:02;98674.66;;;5.23;100.00
53719;BME280;39616;48.872;9.390;2024-03-06T09:23:32;98685.69;;;5.26;100.00
53719;BME280;39616;48.872;9.390;2024-03-06T09:26:03;98677.28;;;5.18;100.00
53719;BME280;39616;48.872;9.390;2024-03-06T09:28:33;98675.19;;;5.25;100.00
53719;BME280;39616;48.872;9.390;2024-03-06T09:31:04;98682.81;;;5.33;100.00
53719;BME280;39616;48.872;9.390;2024-03-06T09:33:34;98681.81;;;5.39;100.00
53719;BME280;39616;48.872;9.390;2024-03-06T09:36:05;98689.81;;;5.34;100.00
53719;BME280;39616;48.872;9.390;2024-03-06T09:38:36;98685.63;;;5.21;100.00
53719;BME280;39616;48.872;9.390;2024-03-06T09:41:08;98688.03;;;5.18;100.00
53719;BME280;39616;48.872;9.390;2024-03-06T09:43:38;98692.91;;;5.21;100.00
53719;BME280;39616;48.872;9.390;2024-03-06T09:46:11;98695.41;;;5.27;100.00
53719;BME280;39616;48.872;9.390;2024-03-06T09:48:46;98700.81;;;5.32;100.00
53719;BME280;39616;48.872;9.390;2024-03-06T09:51:17;98693.31;;;5.35;100.00
53719;BME280;39616;48.872;9.390;2024-03-06T09:53:47;98698.63;;;5.29;100.00
53719;BME280;39616;48.872;9.390;2024-03-06T09:56:21;98694.13;;;5.35;100.00
53719;BME280;39616;48.872;9.390;2024-03-06T09:58:52;98699.69;;;5.28;100.00
53719;BME280;39616;48.872;9.390;2024-03-06T10:01:25;98699.69;;;5.28;100.00
53719;BME280;39616;48.872;9.390;2024-03-06T10:03:57;98706.31;;;5.16;100.00
53719;BME280;39616;48.872;9.390;2024-03-06T10:06:27;98695.25;;;5.39;100.00
53719;BME280;39616;48.872;9.390;2024-03-06T10:09:03;98706.81;;;5.40;100.00
53719;BME280;39616;48.872;9.390;2024-03-06T10:11:41;98707.22;;;5.53;100.00
53719;BME280;39616;48.872;9.390;2024-03-06T10:14:13;98704.84;;;5.57;100.00
53719;BME280;39616;48.872;9.390;2024-03-06T10:16:56;98701.41;;;5.67;100.00
53719;BME280;39616;48.872;9.390;2024-03-06T10:19:29;98703.78;;;5.58;100.00
53719;BME280;39616;48.872;9.390;2024-03-06T10:21:59;98704.72;;;5.47;100.00
53719;BME280;39616;48.872;9.390;2024-03-06T10:24:29;98714.41;;;5.48;100.00
53719;BME280;39616;48.872;9.390;2024-03-06T10:27:00;98709.31;;;5.46;100.00
53719;BME280;39616;48.872;9.390;2024-03-06T10:29:30;98700.97;;;5.48;100.00
53719;BME280;39616;48.872;9.390;2024-03-06T10:32:01;98700.53;;;5.56;100.00
53719;BME280;39616;48.872;9.390;2024-03-06T10:34:31;98701.25;;;5.46;100.00
53719;BME280;39616;48.872;9.390;2024-03-06T10:37:02;98703.81;;;5.63;100.00
53719;BME280;39616;48.872;9.390;2024-03-06T10:39:41;98710.22;;;5.57;100.00
53719;BME280;39616;48.872;9.390;2024-03-06T10:42:13;98700.47;;;5.51;100.00
53719;BME280;39616;48.872;9.390;2024-03-06T10:44:52;98710.25;;;5.62;100.00
53719;BME280;39616;48.872;9.390;2024-03-06T10:47:24;98704.88;;;5.62;100.00
53719;BME280;39616;48.872;9.390;2024-03-06T10:49:59;98702.28;;;5.72;100.00
53719;BME280;39616;48.872;9.390;2024-03-06T10:52:32;98702.78;;;5.69;100.00
53719;BME280;39616;48.872;9.390;2024-03-06T10:55:03;98705.56;;;5.74;100.00
53719;BME280;39616;48.872;9.390;2024-03-06T10:57:36;98702.69;;;5.86;100.00
53719;BME280;39616;48.872;9.390;2024-03-06T11:00:06;98705.69;;;5.90;100.00
53719;BME280;39616;48.872;9.390;2024-03-06T11:02:37;98711.16;;;6.00;100.00
53719;BME280;39616;48.872;9.390;2024-03-06T11:05:08;98704.88;;;5.89;100.00
53719;BME280;39616;48.872;9.390;2024-03-06T11:07:40;98704.97;;;5.99;100.00
53719;BME280;39616;48.872;9.390;2024-03-06T11:10:10;98697.25;;;6.08;100.00
53719;BME280;39616;48.872;9.390;2024-03-06T11:12:47;98697.56;;;6.17;100.00
53719;BME280;39616;48.872;9.390;2024-03-06T11:15:19;98701.81;;;6.08;100.00
53719;BME280;39616;48.872;9.390;2024-03-06T11:17:50;98701.53;;;6.04;100.00
53719;BME280;39616;48.872;9.390;2024-03-06T11:20:21;98698.22;;;6.34;100.00
53719;BME280;39616;48.872;9.390;2024-03-06T11:28:19;98704.63;;;6.23;100.00
53719;BME280;39616;48.872;9.390;2024-03-06T11:31:03;98691.69;;;6.25;100.00
53719;BME280;39616;48.872;9.390;2024-03-06T11:33:38;98695.53;;;6.34;100.00
53719;BME280;39616;48.872;9.390;2024-03-06T11:38:56;98696.22;;;6.57;100.00
53719;BME280;39616;48.872;9.390;2024-03-06T11:41:32;98699.13;;;6.50;100.00
53719;BME280;39616;48.872;9.390;2024-03-06T11:44:02;98697.47;;;6.44;100.00
53719;BME280;39616;48.872;9.390;2024-03-06T11:46:45;98697.84;;;6.63;100.00
53719;BME280;39616;48.872;9.390;2024-03-06T11:49:26;98687.84;;;6.53;100.00
53719;BME280;39616;48.872;9.390;2024-03-06T11:52:03;98699.47;;;6.64;100.00
53719;BME280;39616;48.872;9.390;2024-03-06T11:54:35;98698.97;;;6.67;100.00
53719;BME280;39616;48.872;9.390;2024-03-06T11:57:06;98700.56;;;6.68;100.00
53719;BME280;39616;48.872;9.390;2024-03-06T11:59:37;98700.63;;;6.78;100.00
53719;BME280;39616;48.872;9.390;2024-03-06T12:02:11;98705.47;;;6.81;100.00
53719;BME280;39616;48.872;9.390;2024-03-06T12:04:41;98700.81;;;6.66;100.00
53719;BME280;39616;48.872;9.390;2024-03-06T12:07:12;98699.66;;;6.47;100.00
53719;BME280;39616;48.872;9.390;2024-03-06T12:09:43;98699.16;;;6.55;100.00
53719;BME280;39616;48.872;9.390;2024-03-06T12:12:14;98698.69;;;6.63;100.00
53719;BME280;39616;48.872;9.390;2024-03-06T12:14:56;98702.97;;;6.64;100.00
53719;BME280;39616;48.872;9.390;2024-03-06T12:17:27;98703.41;;;6.46;100.00
53719;BME280;39616;48.872;9.390;2024-03-06T12:19:59;98699.72;;;6.57;100.00
53719;BME280;39616;48.872;9.390;2024-03-06T12:22:30;98700.78;;;6.56;100.00
53719;BME280;39616;48.872;9.390;2024-03-06T12:25:00;98705.03;;;6.47;100.00
53719;BME280;39616;48.872;9.390;2024-03-06T12:27:30;98707.47;;;6.48;100.00
53719;BME280;39616;48.872;9.390;2024-03-06T12:30:01;98703.72;;;6.54;100.00
53719;BME280;39616;48.872;9.390;2024-03-06T12:32:31;98705.91;;;6.58;100.00
53719;BME280;39616;48.872;9.390;2024-03-06T12:35:01;98703.78;;;6.60;100.00
53719;BME280;39616;48.872;9.390;2024-03-06T12:37:32;98704.81;;;6.53;100.00
53719;BME280;39616;48.872;9.390;2024-03-06T12:40:03;98703.72;;;6.49;100.00
53719;BME280;39616;48.872;9.390;2024-03-06T12:42:43;98706.09;;;6.41;100.00
53719;BME280;39616;48.872;9.390;2024-03-06T12:45:15;98706.81;;;6.31;100.00
53719;BME280;39616;48.872;9.390;2024-03-06T12:47:47;98713.91;;;6.42;100.00
53719;BME280;39616;48.872;9.390;2024-03-06T12:50:20;98707.13;;;6.35;100.00
53719;BME280;39616;48.872;9.390;2024-03-06T12:52:50;98702.75;;;6.28;100.00
53719;BME280;39616;48.872;9.390;2024-03-06T12:55:22;98708.44;;;6.32;100.00
53719;BME280;39616;48.872;9.390;2024-03-06T12:57:53;98706.38;;;6.44;100.00
53719;BME280;39616;48.872;9.390;2024-03-06T13:00:23;98703.94;;;6.43;100.00
53719;BME280;39616;48.872;9.390;2024-03-06T13:02:54;98699.69;;;6.52;100.00
53719;BME280;39616;48.872;9.390;2024-03-06T13:05:24;98703.13;;;6.42;100.00
53719;BME280;39616;48.872;9.390;2024-03-06T13:07:55;98697.72;;;6.37;100.00
53719;BME280;39616;48.872;9.390;2024-03-06T13:10:25;98697.66;;;6.27;100.00
53719;BME280;39616;48.872;9.390;2024-03-06T13:12:55;98699.88;;;6.40;100.00
53719;BME280;39616;48.872;9.390;2024-03-06T13:15:26;98702.25;;;6.32;100.00
53719;BME280;39616;48.872;9.390;2024-03-06T13:17:56;98699.78;;;6.25;100.00
53719;BME280;39616;48.872;9.390;2024-03-06T13:20:26;98693.72;;;6.45;100.00
53719;BME280;39616;48.872;9.390;2024-03-06T13:22:57;98692.38;;;6.47;100.00
53719;BME280;39616;48.872;9.390;2024-03-06T13:25:27;98702.31;;;6.42;100.00
53719;BME280;39616;48.872;9.390;2024-03-06T13:27:59;98696.34;;;6.35;100.00